Time;durP1;ratioP1;P1;durP2;ratioP2;P2;SDS_P1;SDS_P2;PMS_P1;PMS_P2;Temp;Humidity;BMP_temperature;BMP_pressure;BME280_temperature;BME280_humidity;BME280_pressure;Samples;Min_cycle;Max_cycle;Signal;HPM_P1;HPM_P2
2022/03/16 00:02:22;;;;;;;11.93;8.63;;;7.70;58.40;;;;;;5019227;28;20056;-43
2022/03/16 00:04:50;;;;;;;11.98;8.43;;;7.70;58.40;;;;;;5019616;28;20053;-45
2022/03/16 00:07:18;;;;;;;14.35;10.00;;;7.70;58.40;;;;;;5023313;28;20060;-43
2022/03/16 00:09:46;;;;;;;14.07;10.05;;;7.70;58.50;;;;;;5023698;28;20058;-44
2022/03/16 00:12:15;;;;;;;14.48;10.25;;;7.60;58.40;;;;;;5023211;28;20501;-43
2022/03/16 00:14:44;;;;;;;14.45;10.18;;;7.60;58.40;;;;;;5021798;28;20053;-43
2022/03/16 00:17:12;;;;;;;13.75;10.02;;;7.60;58.50;;;;;;5022528;28;20056;-46
2022/03/16 00:19:40;;;;;;;12.70;9.60;;;7.60;58.50;;;;;;5022638;28;20414;-43
2022/03/16 00:22:08;;;;;;;12.10;8.57;;;7.60;58.90;;;;;;5020918;28;20056;-43
2022/03/16 00:24:36;;;;;;;13.18;8.95;;;7.60;58.50;;;;;;5017960;28;20068;-45
2022/03/16 00:27:04;;;;;;;16.02;9.60;;;7.60;58.50;;;;;;5022654;28;20061;-46
2022/03/16 00:29:32;;;;;;;14.25;10.10;;;7.50;58.50;;;;;;5022321;28;20053;-42
2022/03/16 00:32:00;;;;;;;14.38;9.88;;;7.50;58.50;;;;;;5022099;28;20049;-43
2022/03/16 00:34:28;;;;;;;10.90;8.27;;;7.50;58.50;;;;;;5018564;28;20064;-44
2022/03/16 00:36:56;;;;;;;13.95;9.57;;;7.50;58.50;;;;;;5023273;28;20049;-43
2022/03/16 00:39:23;;;;;;;13.25;9.30;;;7.50;58.60;;;;;;5020374;28;20409;-43
2022/03/16 00:41:51;;;;;;;12.68;8.38;;;7.50;58.70;;;;;;5021709;28;20429;-43
2022/03/16 00:44:18;;;;;;;12.38;9.07;;;7.50;58.70;;;;;;5020694;28;20506;-43
2022/03/16 00:46:46;;;;;;;12.68;8.88;;;7.40;58.70;;;;;;5022130;28;20061;-43
2022/03/16 00:49:14;;;;;;;11.07;8.00;;;7.40;58.70;;;;;;5021509;28;20057;-43
2022/03/16 00:51:42;;;;;;;13.40;9.10;;;7.40;58.70;;;;;;5019077;28;20061;-50
2022/03/16 00:54:10;;;;;;;14.07;9.60;;;7.40;58.80;;;;;;5020442;28;20061;-43
2022/03/16 00:56:37;;;;;;;10.48;7.55;;;7.40;58.80;;;;;;5019644;28;20076;-42
2022/03/16 00:59:05;;;;;;;12.07;7.80;;;7.40;58.70;;;;;;5017624;28;20383;-45
2022/03/16 01:01:32;;;;;;;12.45;8.95;;;7.30;58.70;;;;;;5021323;28;20049;-44
2022/03/16 01:04:00;;;;;;;13.80;9.68;;;7.30;58.70;;;;;;5016488;28;20057;-42
2022/03/16 01:06:29;;;;;;;11.40;8.27;;;7.30;58.70;;;;;;5022018;28;20053;-42
2022/03/16 01:08:56;;;;;;;15.73;10.20;;;7.30;58.80;;;;;;5022451;28;20053;-42
2022/03/16 01:11:24;;;;;;;15.82;11.50;;;7.30;58.70;;;;;;5021840;28;20497;-45
2022/03/16 01:13:51;;;;;;;15.18;10.65;;;7.30;58.80;;;;;;5019265;28;20061;-44
2022/03/16 01:16:19;;;;;;;17.58;10.98;;;7.20;58.70;;;;;;5020475;28;20418;-45
2022/03/16 01:18:46;;;;;;;15.65;11.43;;;7.20;58.80;;;;;;5020649;28;20049;-43
2022/03/16 01:21:13;;;;;;;14.95;10.52;;;7.20;58.80;;;;;;5022075;28;20053;-43
2022/03/16 01:23:42;;;;;;;12.68;9.65;;;7.20;58.90;;;;;;5017625;28;20056;-42
2022/03/16 01:26:10;;;;;;;19.27;11.38;;;7.20;58.90;;;;;;5021427;28;20524;-46
2022/03/16 01:28:37;;;;;;;15.40;10.20;;;7.20;59.00;;;;;;5022076;28;20053;-43
2022/03/16 01:31:04;;;;;;;14.85;11.05;;;7.10;58.90;;;;;;5021316;28;20053;-43
2022/03/16 01:33:32;;;;;;;20.52;12.13;;;7.10;59.00;;;;;;5021366;28;20426;-43
2022/03/16 01:35:59;;;;;;;22.38;11.25;;;7.10;59.00;;;;;;5021527;28;20528;-43
2022/03/16 01:38:27;;;;;;;26.27;11.27;;;7.10;59.00;;;;;;5019648;28;20057;-42
2022/03/16 01:40:56;;;;;;;82.22;13.38;;;7.10;59.00;;;;;;5022104;28;20053;-42
2022/03/16 01:43:24;;;;;;;16.48;11.18;;;7.10;59.00;;;;;;5019883;28;20405;-42
2022/03/16 01:45:53;;;;;;;43.13;13.30;;;7.10;59.00;;;;;;5018290;28;20620;-42
2022/03/16 01:48:21;;;;;;;48.70;13.45;;;7.10;58.90;;;;;;5019684;28;20506;-45
2022/03/16 01:50:49;;;;;;;33.60;12.82;;;7.10;58.90;;;;;;5021220;28;20049;-42
2022/03/16 01:53:17;;;;;;;120.93;15.40;;;7.10;58.90;;;;;;5021821;28;20133;-42
2022/03/16 01:55:45;;;;;;;50.67;12.27;;;7.00;58.90;;;;;;5020273;28;20060;-43
2022/03/16 01:58:14;;;;;;;14.77;9.77;;;7.00;58.80;;;;;;5021647;28;20421;-45
2022/03/16 02:00:41;;;;;;;12.73;9.68;;;7.00;58.90;;;;;;5022640;28;20512;-42
2022/03/16 02:03:09;;;;;;;18.08;11.40;;;7.00;58.90;;;;;;5019259;28;20076;-45
2022/03/16 02:05:37;;;;;;;21.33;10.32;;;7.00;58.90;;;;;;5018947;28;20053;-42
2022/03/16 02:08:08;;;;;;;13.90;9.48;;;7.00;59.00;;;;;;5018968;28;20053;-43
2022/03/16 02:10:36;;;;;;;14.70;9.32;;;7.00;59.00;;;;;;5021213;28;20049;-43
2022/03/16 02:13:04;;;;;;;12.85;8.75;;;6.90;59.00;;;;;;5021146;28;20441;-42
2022/03/16 02:15:33;;;;;;;12.55;8.45;;;6.90;59.00;;;;;;5020266;28;20500;-43
2022/03/16 02:18:01;;;;;;;13.68;8.73;;;6.90;59.10;;;;;;5021510;28;20061;-42
2022/03/16 02:20:28;;;;;;;15.00;10.13;;;7.00;59.10;;;;;;5019701;28;20064;-43
2022/03/16 02:22:58;;;;;;;12.50;8.88;;;6.90;59.10;;;;;;5021856;28;20053;-42
2022/03/16 02:25:27;;;;;;;16.52;11.85;;;6.90;59.10;;;;;;5019558;28;20060;-43
2022/03/16 02:27:55;;;;;;;18.15;9.55;;;6.90;59.20;;;;;;5024955;28;20063;-43
2022/03/16 02:30:23;;;;;;;38.55;11.55;;;6.90;59.20;;;;;;5024647;28;20059;-43
2022/03/16 02:32:51;;;;;;;93.95;12.52;;;6.90;59.20;;;;;;5025877;28;20053;-43
2022/03/16 02:35:20;;;;;;;25.10;10.40;;;6.90;59.20;;;;;;5022586;28;20057;-42
2022/03/16 02:37:47;;;;;;;14.32;9.80;;;6.90;59.20;;;;;;5022858;28;20056;-44
2022/03/16 02:40:20;;;;;;;51.75;11.23;;;6.90;59.20;;;;;;5024347;28;20053;-43
2022/03/16 02:42:47;;;;;;;18.05;11.55;;;6.90;59.30;;;;;;5023786;28;20060;-43
2022/03/16 02:45:15;;;;;;;19.70;10.82;;;6.90;59.20;;;;;;5018976;28;20045;-43
2022/03/16 02:47:43;;;;;;;15.38;9.68;;;6.90;59.20;;;;;;5023330;28;20057;-43
2022/03/16 02:50:12;;;;;;;15.43;10.63;;;6.90;59.20;;;;;;5021805;28;20823;-43
2022/03/16 02:52:40;;;;;;;30.58;14.30;;;6.90;59.20;;;;;;5024852;28;20049;-42
2022/03/16 02:55:08;;;;;;;17.25;11.65;;;6.90;59.20;;;;;;5019505;28;20493;-42
2022/03/16 02:57:38;;;;;;;18.10;11.82;;;6.90;59.10;;;;;;5022177;28;20061;-43
2022/03/16 03:00:08;;;;;;;14.55;10.07;;;6.80;59.10;;;;;;5023320;28;20421;-43
2022/03/16 03:02:36;;;;;;;14.55;9.52;;;6.80;59.10;;;;;;5025502;28;21068;-43
2022/03/16 03:05:05;;;;;;;14.70;9.75;;;6.80;59.00;;;;;;5022835;28;20060;-42
2022/03/16 03:07:32;;;;;;;62.78;11.93;;;6.80;59.00;;;;;;5025123;28;20068;-43
2022/03/16 03:10:00;;;;;;;16.13;10.90;;;6.80;58.90;;;;;;5024526;28;20057;-43
2022/03/16 03:12:27;;;;;;;15.35;9.77;;;6.70;58.90;;;;;;5023887;28;20417;-42
2022/03/16 03:14:56;;;;;;;13.75;9.27;;;6.70;58.80;;;;;;5021684;28;20064;-42
2022/03/16 03:17:25;;;;;;;14.23;10.10;;;6.70;58.80;;;;;;5024844;28;20060;-43
2022/03/16 03:19:53;;;;;;;14.73;10.25;;;6.70;58.70;;;;;;5021795;28;20512;-43
2022/03/16 03:22:20;;;;;;;13.45;9.05;;;6.60;58.70;;;;;;5021168;28;20061;-43
2022/03/16 03:24:48;;;;;;;13.32;9.60;;;6.60;58.60;;;;;;5020487;28;20061;-45
2022/03/16 03:27:15;;;;;;;13.07;8.93;;;6.60;58.60;;;;;;5024103;28;20056;-43
2022/03/16 03:29:42;;;;;;;13.07;8.93;;;6.60;58.70;;;;;;5023923;28;20053;-43
2022/03/16 03:32:11;;;;;;;13.35;9.00;;;6.60;58.70;;;;;;5023563;28;20057;-42
2022/03/16 03:34:39;;;;;;;12.20;8.73;;;6.50;58.70;;;;;;5018205;28;20422;-43
2022/03/16 03:37:07;;;;;;;13.05;9.15;;;6.50;58.70;;;;;;5022760;28;20058;-42
2022/03/16 03:39:34;;;;;;;15.50;8.93;;;6.50;58.70;;;;;;5023974;28;20045;-43
2022/03/16 03:42:01;;;;;;;14.98;9.18;;;6.50;58.70;;;;;;5020891;28;20518;-43
2022/03/16 03:44:29;;;;;;;12.57;7.93;;;6.50;58.80;;;;;;5019492;28;20049;-43
2022/03/16 03:46:56;;;;;;;12.05;8.98;;;6.40;58.70;;;;;;5020753;28;20514;-43
2022/03/16 03:49:25;;;;;;;12.93;8.30;;;6.40;58.70;;;;;;5021164;28;20619;-43
2022/03/16 03:51:52;;;;;;;10.98;7.95;;;6.40;58.80;;;;;;5021869;28;20057;-43
2022/03/16 03:54:20;;;;;;;10.00;7.55;;;6.40;58.80;;;;;;5017671;28;20056;-43
2022/03/16 03:56:47;;;;;;;12.70;8.40;;;6.30;58.80;;;;;;5021914;28;20064;-43
2022/03/16 03:59:15;;;;;;;12.45;8.70;;;6.30;58.80;;;;;;5022209;28;20060;-43
2022/03/16 04:01:42;;;;;;;13.90;9.38;;;6.30;58.90;;;;;;5022782;28;20058;-43
2022/03/16 04:04:10;;;;;;;11.68;8.80;;;6.30;59.00;;;;;;5017425;28;20053;-43
2022/03/16 04:06:38;;;;;;;10.80;7.50;;;6.20;59.00;;;;;;5020464;28;20057;-43
2022/03/16 04:09:06;;;;;;;11.73;8.55;;;6.20;59.00;;;;;;5020440;28;20045;-44
2022/03/16 04:11:35;;;;;;;13.75;9.60;;;6.20;59.10;;;;;;5021685;28;20053;-43
2022/03/16 04:14:02;;;;;;;13.65;9.70;;;6.20;59.20;;;;;;5016973;28;20068;-45
2022/03/16 04:16:30;;;;;;;15.13;9.60;;;6.20;59.20;;;;;;5022632;28;20048;-43
2022/03/16 04:18:57;;;;;;;13.27;9.40;;;6.20;59.30;;;;;;5020816;28;20058;-43
2022/03/16 04:21:25;;;;;;;19.23;11.85;;;6.10;59.30;;;;;;5022697;28;20045;-43
2022/03/16 04:23:54;;;;;;;14.50;9.95;;;6.20;59.50;;;;;;5018869;28;20801;-44
2022/03/16 04:26:22;;;;;;;25.77;11.88;;;6.20;59.60;;;;;;5020299;28;20061;-43
2022/03/16 04:28:50;;;;;;;28.30;11.40;;;6.20;59.70;;;;;;5020627;28;20068;-43
2022/03/16 04:31:17;;;;;;;23.08;10.63;;;6.20;59.70;;;;;;5022554;28;20049;-43
2022/03/16 04:33:45;;;;;;;19.05;9.95;;;6.20;59.80;;;;;;5019098;28;20057;-45
2022/03/16 04:36:12;;;;;;;20.67;11.70;;;6.20;59.80;;;;;;5017735;28;20482;-44
2022/03/16 04:38:39;;;;;;;59.55;12.70;;;6.20;59.80;;;;;;5019802;28;20053;-46
2022/03/16 04:41:09;;;;;;;41.75;11.82;;;6.20;59.90;;;;;;5023378;28;20053;-43
2022/03/16 04:43:36;;;;;;;14.65;10.18;;;6.20;59.80;;;;;;5017288;28;20061;-43
2022/03/16 04:46:04;;;;;;;17.23;11.25;;;6.20;59.80;;;;;;5018859;28;20057;-43
2022/03/16 04:48:31;;;;;;;14.23;9.68;;;6.20;59.80;;;;;;5021858;28;20053;-43
2022/03/16 04:50:59;;;;;;;15.27;10.07;;;6.20;59.70;;;;;;5020913;28;20045;-43
2022/03/16 04:53:26;;;;;;;16.08;10.73;;;6.20;59.70;;;;;;5023921;28;20053;-43
2022/03/16 04:55:54;;;;;;;14.02;9.60;;;6.20;59.60;;;;;;5020318;28;20062;-43
2022/03/16 04:58:23;;;;;;;18.58;12.05;;;6.20;59.50;;;;;;5019741;28;20056;-44
2022/03/16 05:00:50;;;;;;;14.73;9.52;;;6.20;59.40;;;;;;5021595;28;20486;-43
2022/03/16 05:03:17;;;;;;;16.45;10.05;;;6.20;59.30;;;;;;5018819;28;20060;-43
2022/03/16 05:05:46;;;;;;;14.40;9.63;;;6.20;59.30;;;;;;5016968;28;20405;-43
2022/03/16 05:08:14;;;;;;;15.48;10.55;;;6.20;59.20;;;;;;5021201;28;20053;-44
2022/03/16 05:10:41;;;;;;;17.58;11.27;;;6.20;59.20;;;;;;5020539;28;20045;-43
2022/03/16 05:13:09;;;;;;;17.65;11.35;;;6.20;59.10;;;;;;5021526;28;20049;-43
2022/03/16 05:15:38;;;;;;;20.77;10.90;;;6.10;59.10;;;;;;5009421;28;20498;-43
2022/03/16 05:18:06;;;;;;;22.67;13.20;;;6.10;59.30;;;;;;5015536;28;20049;-44
2022/03/16 05:20:33;;;;;;;19.05;11.50;;;6.10;60.00;;;;;;5020286;28;20053;-43
2022/03/16 05:23:01;;;;;;;17.85;12.05;;;6.10;59.60;;;;;;5018527;28;20049;-43
2022/03/16 05:25:31;;;;;;;21.00;11.93;;;6.00;59.70;;;;;;5020415;28;20062;-42
2022/03/16 05:27:59;;;;;;;21.17;13.02;;;6.00;59.80;;;;;;5019675;28;20053;-43
2022/03/16 05:30:27;;;;;;;20.92;12.48;;;6.00;60.10;;;;;;5021884;28;20448;-43
2022/03/16 05:33:00;;;;;;;43.33;16.02;;;6.00;60.20;;;;;;5022144;28;20049;-44
2022/03/16 05:35:28;;;;;;;22.80;13.35;;;6.00;60.70;;;;;;5018382;28;20057;-43
2022/03/16 05:37:56;;;;;;;24.45;13.77;;;6.00;60.80;;;;;;5020009;28;20053;-43
2022/03/16 05:40:24;;;;;;;22.13;13.93;;;6.00;60.80;;;;;;5018196;28;20053;-43
2022/03/16 05:42:51;;;;;;;21.90;13.45;;;5.90;60.90;;;;;;5020931;28;20057;-44
2022/03/16 05:45:19;;;;;;;67.20;31.92;;;6.00;61.00;;;;;;5015216;28;20056;-42
2022/03/16 05:47:47;;;;;;;46.88;24.98;;;6.00;61.10;;;;;;5018922;28;20435;-45
2022/03/16 05:50:15;;;;;;;32.53;18.40;;;6.00;61.10;;;;;;5018278;28;20522;-43
2022/03/16 05:52:46;;;;;;;23.17;14.57;;;5.90;61.30;;;;;;5020815;28;20072;-45
2022/03/16 05:55:14;;;;;;;23.42;15.40;;;6.00;61.30;;;;;;5019082;28;20060;-43
2022/03/16 05:57:44;;;;;;;23.52;15.25;;;5.90;61.40;;;;;;5020953;28;20053;-43
2022/03/16 06:00:14;;;;;;;21.73;13.10;;;6.00;61.40;;;;;;5020381;28;20045;-45
2022/03/16 06:02:42;;;;;;;23.08;15.45;;;6.00;61.50;;;;;;5014653;28;20065;-44
2022/03/16 06:05:10;;;;;;;26.70;15.70;;;6.00;61.70;;;;;;5012246;28;20053;-43
2022/03/16 06:07:39;;;;;;;46.22;25.52;;;6.00;61.90;;;;;;5018261;28;20064;-43
2022/03/16 06:10:09;;;;;;;35.58;20.55;;;6.00;62.20;;;;;;5017628;28;20056;-42
2022/03/16 06:12:50;;;;;;;29.75;16.58;;;6.00;62.40;;;;;;5020600;28;20072;-43
2022/03/16 06:15:18;;;;;;;29.85;16.52;;;6.00;62.70;;;;;;5017758;28;20061;-43
2022/03/16 06:17:46;;;;;;;27.40;17.38;;;6.00;62.50;;;;;;5017189;28;20490;-43
2022/03/16 06:20:13;;;;;;;28.17;17.08;;;6.00;62.70;;;;;;5018109;28;20056;-43
2022/03/16 06:22:42;;;;;;;27.83;16.38;;;6.10;63.00;;;;;;5016761;28;20061;-44
2022/03/16 06:25:10;;;;;;;29.15;17.42;;;6.10;63.40;;;;;;5016878;28;20057;-43
2022/03/16 06:27:37;;;;;;;33.65;18.95;;;6.10;63.50;;;;;;5020219;28;20045;-43
2022/03/16 06:30:06;;;;;;;37.78;21.42;;;6.10;63.70;;;;;;5017045;28;20061;-43
2022/03/16 06:32:34;;;;;;;32.83;20.10;;;6.20;64.30;;;;;;5019402;28;20053;-43
2022/03/16 06:35:01;;;;;;;31.33;19.33;;;6.30;64.50;;;;;;5014566;28;20532;-43
2022/03/16 06:37:29;;;;;;;66.80;32.65;;;6.30;64.60;;;;;;5015986;28;20413;-43
2022/03/16 06:39:58;;;;;;;50.53;27.52;;;6.30;64.70;;;;;;5017249;28;20056;-42
2022/03/16 06:42:25;;;;;;;37.75;21.95;;;6.40;64.90;;;;;;5017396;28;20057;-43
2022/03/16 06:44:53;;;;;;;39.45;21.23;;;6.50;65.10;;;;;;5013016;28;20053;-46
2022/03/16 06:47:20;;;;;;;33.50;20.83;;;6.50;65.10;;;;;;5015527;28;20083;-44
2022/03/16 06:49:48;;;;;;;32.40;20.65;;;6.60;65.20;;;;;;5017786;28;20073;-43
2022/03/16 06:52:15;;;;;;;35.83;19.65;;;6.60;65.20;;;;;;5021311;28;20092;-43
2022/03/16 06:54:43;;;;;;;31.65;19.35;;;6.70;65.10;;;;;;5017137;28;20049;-43
2022/03/16 06:57:12;;;;;;;27.05;18.15;;;6.70;65.10;;;;;;5021259;28;20623;-42
2022/03/16 06:59:42;;;;;;;31.95;18.00;;;6.80;65.20;;;;;;5016781;28;20060;-43
2022/03/16 07:02:10;;;;;;;31.02;18.60;;;6.80;65.30;;;;;;5012631;28;20057;-43
2022/03/16 07:04:37;;;;;;;29.23;18.58;;;6.90;65.50;;;;;;5016666;28;20060;-43
2022/03/16 07:07:05;;;;;;;32.67;19.17;;;6.90;65.50;;;;;;5020126;28;20073;-43
2022/03/16 07:09:32;;;;;;;25.52;16.95;;;6.90;65.60;;;;;;5017758;28;20516;-43
2022/03/16 07:12:01;;;;;;;29.25;19.08;;;7.00;65.70;;;;;;5022615;28;20057;-43
2022/03/16 07:14:32;;;;;;;30.20;18.80;;;7.10;65.80;;;;;;5021781;28;20053;-45
2022/03/16 07:17:01;;;;;;;27.00;17.48;;;7.10;65.90;;;;;;5023824;28;20593;-42
2022/03/16 07:19:30;;;;;;;29.05;18.50;;;7.10;66.20;;;;;;5023182;28;20069;-43
2022/03/16 07:21:58;;;;;;;29.30;16.92;;;7.20;66.30;;;;;;5023602;28;20505;-43
2022/03/16 07:24:26;;;;;;;27.05;16.92;;;7.20;66.30;;;;;;5022408;28;20057;-43
2022/03/16 07:26:55;;;;;;;27.13;17.65;;;7.30;66.40;;;;;;5024559;28;20421;-43
2022/03/16 07:29:23;;;;;;;27.25;17.85;;;7.30;66.40;;;;;;5024468;28;20430;-42
2022/03/16 07:31:52;;;;;;;28.13;18.45;;;7.40;66.40;;;;;;5025197;28;20050;-43
2022/03/16 07:34:20;;;;;;;30.48;18.50;;;7.40;66.40;;;;;;5022192;28;20057;-43
2022/03/16 07:36:47;;;;;;;30.55;18.23;;;7.50;66.50;;;;;;5023798;28;20072;-45
2022/03/16 07:39:14;;;;;;;28.05;17.50;;;7.50;66.50;;;;;;5022062;28;20049;-43
2022/03/16 07:41:42;;;;;;;29.98;18.65;;;7.50;66.50;;;;;;5023782;28;20486;-43
2022/03/16 07:44:09;;;;;;;29.65;16.98;;;7.60;66.80;;;;;;5018789;28;20391;-43
2022/03/16 07:46:37;;;;;;;27.27;17.45;;;7.60;67.10;;;;;;5016885;28;20494;-43
2022/03/16 07:49:06;;;;;;;27.05;17.00;;;7.70;67.10;;;;;;5022619;28;20073;-43
2022/03/16 07:51:33;;;;;;;25.70;16.23;;;7.70;66.90;;;;;;5023148;28;20107;-43
2022/03/16 07:54:01;;;;;;;25.75;17.08;;;7.80;66.90;;;;;;5019641;28;20500;-43
2022/03/16 07:56:28;;;;;;;26.00;17.27;;;7.90;66.90;;;;;;5024518;28;20054;-43
2022/03/16 07:58:58;;;;;;;25.95;17.10;;;8.00;67.00;;;;;;5022295;28;20057;-43
2022/03/16 08:01:25;;;;;;;26.40;17.67;;;8.00;67.10;;;;;;5004229;28;20057;-43
2022/03/16 08:03:53;;;;;;;28.50;18.00;;;8.10;67.30;;;;;;5017606;28;20678;-43
2022/03/16 08:06:22;;;;;;;26.52;16.52;;;8.10;67.30;;;;;;5019891;28;20421;-43
2022/03/16 08:08:49;;;;;;;25.98;16.08;;;8.20;67.30;;;;;;5023059;28;20064;-43
2022/03/16 08:11:17;;;;;;;23.77;15.90;;;8.20;67.00;;;;;;5021897;28;20517;-43
2022/03/16 08:13:45;;;;;;;27.30;17.20;;;8.30;67.20;;;;;;5016290;28;20585;-43
2022/03/16 08:16:12;;;;;;;26.00;17.38;;;8.40;67.40;;;;;;5023102;28;20053;-43
2022/03/16 08:18:40;;;;;;;24.85;16.50;;;8.40;67.10;;;;;;5022204;28;20049;-43
2022/03/16 08:21:08;;;;;;;23.02;15.52;;;8.50;67.20;;;;;;5022557;28;20414;-43
2022/03/16 08:23:37;;;;;;;22.27;15.23;;;8.60;67.00;;;;;;5019071;28;20072;-43
2022/03/16 08:26:04;;;;;;;24.60;15.27;;;8.60;66.60;;;;;;5019289;28;20068;-45
2022/03/16 08:28:32;;;;;;;23.85;14.75;;;8.70;66.30;;;;;;5019614;28;20053;-42
2022/03/16 08:31:01;;;;;;;26.60;16.02;;;8.70;66.30;;;;;;5021102;28;20409;-45
2022/03/16 08:33:28;;;;;;;22.17;15.32;;;8.80;66.50;;;;;;5023424;28;20099;-43
2022/03/16 08:35:57;;;;;;;22.95;14.82;;;8.90;66.30;;;;;;5019459;28;20061;-44
2022/03/16 08:38:25;;;;;;;20.73;13.63;;;9.00;66.10;;;;;;5022853;28;20421;-43
2022/03/16 08:40:53;;;;;;;24.13;14.90;;;9.00;65.90;;;;;;5021787;28;20049;-43
2022/03/16 08:43:21;;;;;;;22.48;14.75;;;9.10;65.70;;;;;;5017613;28;20600;-45
2022/03/16 08:45:48;;;;;;;22.58;14.55;;;9.20;65.40;;;;;;5019827;28;20056;-46
2022/03/16 08:48:16;;;;;;;22.67;14.20;;;9.30;65.20;;;;;;5019913;28;20417;-43
2022/03/16 08:50:44;;;;;;;34.70;19.45;;;9.30;64.90;;;;;;5019744;28;20433;-43
2022/03/16 08:53:11;;;;;;;24.35;15.73;;;9.40;64.60;;;;;;5019599;28;20061;-43
2022/03/16 08:55:39;;;;;;;20.77;14.75;;;9.50;64.50;;;;;;5019602;28;20064;-43
2022/03/16 08:58:08;;;;;;;21.50;13.77;;;9.60;64.60;;;;;;5021418;28;20513;-43
2022/03/16 09:00:36;;;;;;;20.50;13.70;;;9.70;64.30;;;;;;5021687;28;20494;-43
2022/03/16 09:03:04;;;;;;;19.50;12.95;;;9.70;63.90;;;;;;5020115;28;20057;-43
2022/03/16 09:05:32;;;;;;;18.20;12.90;;;9.80;63.60;;;;;;5020107;28;20068;-46
2022/03/16 09:07:59;;;;;;;21.25;13.70;;;9.90;63.50;;;;;;5021407;28;20053;-44
2022/03/16 09:10:27;;;;;;;20.38;13.63;;;9.90;63.30;;;;;;5020008;28;20056;-43
2022/03/16 09:12:54;;;;;;;22.08;13.30;;;10.00;63.20;;;;;;5021202;28;20434;-43
2022/03/16 09:15:23;;;;;;;19.75;13.63;;;10.10;63.20;;;;;;5017775;28;20050;-45
2022/03/16 09:17:52;;;;;;;18.40;13.13;;;10.20;63.00;;;;;;5019641;28;20054;-43
2022/03/16 09:20:20;;;;;;;18.48;12.48;;;10.20;62.50;;;;;;5020317;28;20057;-43
2022/03/16 09:22:47;;;;;;;20.77;13.25;;;10.30;62.40;;;;;;5016469;28;20057;-47
2022/03/16 09:25:15;;;;;;;19.38;12.65;;;10.40;62.30;;;;;;5014341;28;20061;-44
2022/03/16 09:27:42;;;;;;;19.95;13.23;;;10.40;62.00;;;;;;5020908;28;20054;-45
2022/03/16 09:30:11;;;;;;;20.48;13.18;;;10.50;61.60;;;;;;5020433;28;20053;-43
2022/03/16 09:32:40;;;;;;;18.40;12.48;;;10.50;61.00;;;;;;5018757;28;20064;-43
2022/03/16 09:35:09;;;;;;;18.80;13.18;;;10.60;60.90;;;;;;5016514;28;20060;-43
2022/03/16 09:37:36;;;;;;;39.33;20.63;;;10.60;60.90;;;;;;5022018;28;20090;-43
2022/03/16 09:40:04;;;;;;;23.90;14.85;;;10.70;60.80;;;;;;5020518;28;20414;-48
2022/03/16 09:42:32;;;;;;;19.70;13.88;;;10.70;60.80;;;;;;5020785;28;20062;-43
2022/03/16 09:55:30;;;;;;;18.25;12.70;;;11.00;59.70;;;;;;4973746;28;20439;-43
2022/03/16 09:57:57;;;;;;;18.17;12.05;;;11.00;59.30;;;;;;4979908;28;20061;-43
2022/03/16 10:00:25;;;;;;;18.08;12.07;;;11.00;59.30;;;;;;4981247;28;20061;-43
2022/03/16 10:02:54;;;;;;;18.17;12.55;;;11.10;58.90;;;;;;4976954;28;20058;-43
2022/03/16 10:05:22;;;;;;;16.63;11.73;;;11.10;59.00;;;;;;4987418;28;20502;-43
2022/03/16 10:07:54;;;;;;;17.42;12.05;;;11.10;58.80;;;;;;5022214;28;20080;-46
2022/03/16 10:13:17;;;;;;;15.90;11.27;;;11.20;59.00;;;;;;4986567;28;20050;-43
2022/03/16 10:15:44;;;;;;;13.88;10.32;;;11.30;58.50;;;;;;5021063;28;20057;-43
2022/03/16 10:18:15;;;;;;;17.13;10.90;;;11.40;58.40;;;;;;5022106;28;20520;-47
2022/03/16 10:20:43;;;;;;;16.35;12.55;;;11.40;58.50;;;;;;5021594;28;20053;-43
2022/03/16 10:23:14;;;;;;;14.65;10.60;;;11.50;58.00;;;;;;5020170;28;20056;-43
2022/03/16 10:25:45;;;;;;;17.63;11.35;;;11.50;57.70;;;;;;5017479;28;20061;-43
2022/03/16 10:28:16;;;;;;;16.98;11.48;;;11.60;57.20;;;;;;5021029;28;20430;-43
2022/03/16 10:30:56;;;;;;;15.70;11.32;;;11.60;57.40;;;;;;5022125;28;20065;-43
2022/03/16 10:33:29;;;;;;;15.98;11.38;;;11.70;57.70;;;;;;5022122;28;20421;-43
2022/03/16 10:36:00;;;;;;;17.38;11.95;;;11.70;57.40;;;;;;5020749;28;20382;-43
2022/03/16 10:38:28;;;;;;;13.45;9.95;;;11.80;57.50;;;;;;5022105;28;20080;-43
2022/03/16 10:41:09;;;;;;;15.40;10.48;;;11.80;57.40;;;;;;5022353;28;20053;-44
2022/03/16 10:49:09;;;;;;;15.40;10.23;;;12.00;57.00;;;;;;5024260;28;20057;-43
2022/03/16 10:51:37;;;;;;;13.93;10.00;;;12.00;56.70;;;;;;5021498;28;20514;-43
2022/03/16 10:54:06;;;;;;;14.00;10.18;;;12.10;56.60;;;;;;5025068;28;20076;-43
2022/03/16 10:56:40;;;;;;;15.85;10.57;;;12.10;56.50;;;;;;5024291;28;20614;-42
2022/03/16 10:59:08;;;;;;;13.37;9.43;;;12.20;56.50;;;;;;5025676;28;20439;-42
2022/03/16 11:01:39;;;;;;;18.75;10.98;;;12.20;56.60;;;;;;5020769;28;20056;-42
2022/03/16 11:04:08;;;;;;;13.10;9.52;;;12.30;56.40;;;;;;5021409;28;20053;-43
2022/03/16 11:06:36;;;;;;;13.40;9.68;;;12.30;56.40;;;;;;5025944;28;20061;-43
2022/03/16 11:09:05;;;;;;;15.30;10.45;;;12.40;56.00;;;;;;5025458;28;20076;-43
2022/03/16 11:14:21;;;;;;;14.10;10.48;;;12.50;55.70;;;;;;5027858;28;20069;-42
2022/03/16 11:16:50;;;;;;;16.88;10.63;;;12.50;55.60;;;;;;5024120;28;20050;-47
2022/03/16 11:19:19;;;;;;;19.30;10.00;;;12.60;55.70;;;;;;5022991;28;20064;-42
2022/03/16 11:21:58;;;;;;;15.80;11.23;;;12.60;55.10;;;;;;5022675;28;20052;-42
2022/03/16 11:24:32;;;;;;;16.30;10.95;;;12.60;55.10;;;;;;5023533;28;20052;-43
2022/03/16 11:27:17;;;;;;;15.00;11.05;;;12.70;55.00;;;;;;5025205;28;20502;-45
2022/03/16 11:29:58;;;;;;;13.73;10.18;;;12.70;55.10;;;;;;5025109;28;20053;-42
2022/03/16 11:32:26;;;;;;;14.20;10.57;;;12.80;55.00;;;;;;5023537;28;20053;-43
2022/03/16 11:34:58;;;;;;;16.60;10.50;;;12.80;54.70;;;;;;5018835;28;20524;-43
2022/03/16 11:37:34;;;;;;;15.90;10.73;;;12.80;54.50;;;;;;5025094;28;20521;-42
2022/03/16 11:40:10;;;;;;;13.98;10.27;;;12.90;54.60;;;;;;5024782;28;20064;-43
2022/03/16 11:42:38;;;;;;;15.52;10.90;;;12.90;54.60;;;;;;5021592;28;20063;-43
2022/03/16 11:45:36;;;;;;;14.55;10.23;;;13.00;54.40;;;;;;5020068;28;20045;-43
2022/03/16 11:48:37;;;;;;;16.52;11.50;;;13.00;54.30;;;;;;5024306;28;20405;-43
2022/03/16 11:51:23;;;;;;;16.35;11.77;;;13.10;54.10;;;;;;5024631;28;20057;-42
2022/03/16 11:54:12;;;;;;;13.93;9.88;;;13.10;53.90;;;;;;5023168;28;20053;-43
2022/03/16 11:56:53;;;;;;;14.18;10.27;;;13.20;53.30;;;;;;5015319;28;20061;-43
2022/03/16 11:59:35;;;;;;;14.68;10.75;;;13.30;53.40;;;;;;5022791;28;20417;-45
2022/03/16 12:02:20;;;;;;;15.20;10.43;;;13.30;53.70;;;;;;5022950;28;20053;-43
2022/03/16 12:04:49;;;;;;;14.07;10.38;;;13.40;54.20;;;;;;5020816;28;20049;-43
2022/03/16 12:07:19;;;;;;;16.58;11.00;;;13.50;53.60;;;;;;5015061;28;20053;-43
2022/03/16 12:09:49;;;;;;;15.52;11.57;;;13.50;53.60;;;;;;5020091;28;20053;-43
2022/03/16 12:15:31;;;;;;;15.98;10.88;;;13.60;53.10;;;;;;5021654;28;20056;-42
2022/03/16 12:18:31;;;;;;;14.23;10.13;;;13.70;52.90;;;;;;5018660;28;20053;-42
2022/03/16 12:21:03;;;;;;;15.52;10.68;;;13.80;53.00;;;;;;4960215;28;20496;-43
2022/03/16 12:23:54;;;;;;;16.65;10.57;;;13.80;52.70;;;;;;5011623;28;20069;-44
2022/03/16 12:26:27;;;;;;;27.30;16.63;;;13.80;52.70;;;;;;5017662;28;20068;-42
2022/03/16 12:29:08;;;;;;;20.02;12.82;;;13.80;52.40;;;;;;5023381;28;20064;-42
2022/03/16 12:31:38;;;;;;;17.42;12.27;;;13.90;52.00;;;;;;5019370;28;20060;-42
2022/03/16 12:34:07;;;;;;;13.05;9.65;;;13.90;52.20;;;;;;5017283;28;20060;-42
2022/03/16 12:36:36;;;;;;;14.02;10.25;;;14.00;52.50;;;;;;5023810;28;20065;-42
2022/03/16 12:39:07;;;;;;;14.02;11.32;;;14.00;52.60;;;;;;5018530;28;20052;-42
2022/03/16 12:44:22;;;;;;;15.82;11.40;;;14.10;52.20;;;;;;5019496;28;20060;-42
2022/03/16 12:47:05;;;;;;;16.20;11.30;;;14.20;51.90;;;;;;5023488;28;20518;-42
2022/03/16 12:49:41;;;;;;;14.98;10.93;;;14.20;51.80;;;;;;5022186;28;20497;-44
2022/03/16 12:52:10;;;;;;;14.85;10.77;;;14.20;51.90;;;;;;5023774;28;20421;-42
2022/03/16 12:54:40;;;;;;;15.43;10.57;;;14.20;52.00;;;;;;5020259;28;20049;-42
2022/03/16 12:57:10;;;;;;;15.77;11.07;;;14.30;52.00;;;;;;5024233;28;20057;-42
2022/03/16 12:59:41;;;;;;;15.77;11.07;;;14.30;52.00;;;;;;5022559;28;20053;-42
2022/03/16 13:02:11;;;;;;;16.95;11.20;;;14.30;51.80;;;;;;5022336;28;20097;-42
2022/03/16 13:04:41;;;;;;;14.43;10.68;;;14.30;52.00;;;;;;5019551;28;20057;-43
2022/03/16 13:07:13;;;;;;;15.13;10.70;;;14.30;51.60;;;;;;5023490;28;20934;-42
2022/03/16 13:09:41;;;;;;;17.15;10.60;;;14.30;51.60;;;;;;5022532;28;20132;-43
2022/03/16 13:12:11;;;;;;;17.23;12.02;;;14.40;51.60;;;;;;5023838;28;20050;-42
2022/03/16 13:14:43;;;;;;;15.60;11.63;;;14.40;51.60;;;;;;5020853;28;20498;-42